LDDU

Dubrovnik Airport

Dubrovnik, Croatia
TAF LDDU 251725Z 2518/2618 02028G38KT CAVOK TX21/2613Z TN13/2604Z TEMPO 2518/2609 02034KT PROB40 TEMPO 2518/2607 02035G48KT BECMG 2609/2611 02018KT PROB40 TEMPO 2611/2616 VRB20G30KT BECMG 2616/2618 02020G30KT
Issued Valid From Valid To
Sep-25 @ 17:25 UTC
(2 hours ago)
Sep-25 @ 18:00 UTC
(an hour ago)
Sep-26 @ 18:00 UTC
(in 23 hours)
Sep-25 @ 18:00 to Sep-26 @ 09:00
TAF LDDU 251725Z 2518/2618 02028G38KT CAVOK TX21/2613Z TN13/2604Z
Wind Visibility Clouds
20° at 28 knots
 Gusting to 38 knots
10,000+ meters
  • No significant clouds
Temporary  (Probability 40%) Sep-25 @ 18:00 to Sep-26 @ 07:00
PROB40 TEMPO 2518/2607 02035G48KT
Wind
20° at 35 knots
 Gusting to 48 knots
Temporary Sep-25 @ 18:00 to Sep-26 @ 09:00
TEMPO 2518/2609 02034KT
Wind
20° at 34 knots
Becoming Sep-26 @ 09:00 to Sep-26 @ 16:00
BECMG 2609/2611 02018KT
Wind Visibility Clouds
20° at 18 knots 10,000+ meters
  • No significant clouds
Temporary  (Probability 40%) Sep-26 @ 11:00 to Sep-26 @ 16:00
PROB40 TEMPO 2611/2616 VRB20G30KT
Wind
Variable at 20 knots
 Gusting to 30 knots
Becoming Sep-26 @ 16:00 to Sep-26 @ 18:00
BECMG 2616/2618 02020G30KT
Wind Visibility Clouds
20° at 20 knots
 Gusting to 30 knots
10,000+ meters
  • No significant clouds
TAF LDDU 251725Z 2518/2618 02028G38KT CAVOK TX21/2613Z TN13/2604Z TEMPO 2518/2609 02034KT PROB40 TEMPO 2518/2607 02035G48KT BECMG 2609/2611 02018KT PROB40 TEMPO 2611/2616 VRB20G30KT BECMG 2616/2618 02020G30KT
Issued Sep-25 @ 17:25 UTC
(2 hours ago)
Valid From Sep-25 @ 18:00 UTC
(an hour ago)
Valid To Sep-26 @ 18:00 UTC
(in 23 hours)
Sep-25 @ 18:00 - Sep-26 @ 09:00
Wind Visibility
20° at 28 knots
 Gusting to 38 knots
10,000+ meters
Clouds
  • No significant clouds
Probability 40% Temporary Sep-25 @ 18:00 - Sep-26 @ 07:00
Wind
20° at 35 knots
 Gusting to 48 knots
Temporary Sep-25 @ 18:00 - Sep-26 @ 09:00
Wind
20° at 34 knots
Becoming Sep-26 @ 09:00 - Sep-26 @ 16:00
Wind Visibility
20° at 18 knots 10,000+ meters
Clouds
  • No significant clouds
Probability 40% Temporary Sep-26 @ 11:00 - Sep-26 @ 16:00
Wind
Variable at 20 knots
 Gusting to 30 knots
Becoming Sep-26 @ 16:00 - Sep-26 @ 18:00
Wind Visibility
20° at 20 knots
 Gusting to 30 knots
10,000+ meters
Clouds
  • No significant clouds